Time;durP1;ratioP1;P1;durP2;ratioP2;P2;SDS_P1;SDS_P2;PMS_P1;PMS_P2;Temp;Humidity;BMP_temperature;BMP_pressure;BME280_temperature;BME280_humidity;BME280_pressure;Samples;Min_cycle;Max_cycle;Signal;HPM_P1;HPM_P2
2021/10/15 00:01:24;;;;;;;15.57;10.00;;;;;;;12.19;100.00;100741.19;7394371;19;20435;-52
2021/10/15 00:03:56;;;;;;;26.60;10.03;;;;;;;12.10;100.00;100740.00;7400740;19;20424;-52
2021/10/15 00:06:26;;;;;;;20.20;9.63;;;;;;;12.08;100.00;100735.59;7394901;19;20782;-50
2021/10/15 00:08:55;;;;;;;18.47;11.47;;;;;;;12.17;100.00;100741.13;7401716;19;20850;-52
2021/10/15 00:11:25;;;;;;;21.03;11.53;;;;;;;12.11;100.00;100733.16;7395742;19;20431;-52
2021/10/15 00:13:54;;;;;;;21.73;11.20;;;;;;;12.10;100.00;100729.66;7402236;19;20869;-52
2021/10/15 00:16:24;;;;;;;18.17;10.90;;;;;;;12.06;100.00;100717.47;7394447;19;20890;-51
2021/10/15 00:18:53;;;;;;;21.03;12.40;;;;;;;12.03;100.00;100722.50;7401719;19;20390;-55
2021/10/15 00:21:25;;;;;;;21.67;12.50;;;;;;;12.05;100.00;100728.63;7394480;19;20439;-56
2021/10/15 00:23:55;;;;;;;25.10;13.43;;;;;;;12.17;100.00;100722.13;7400695;19;20493;-51
2021/10/15 00:26:24;;;;;;;17.30;10.97;;;;;;;12.04;100.00;100715.66;7397581;19;20426;-54
2021/10/15 00:28:54;;;;;;;24.57;14.27;;;;;;;12.13;100.00;100711.69;7406104;19;20506;-55
2021/10/15 00:31:23;;;;;;;19.90;10.93;;;;;;;12.06;100.00;100703.66;7394578;19;20421;-52
2021/10/15 00:33:53;;;;;;;26.47;12.70;;;;;;;12.08;100.00;100702.00;7399898;19;20896;-56
2021/10/15 00:36:25;;;;;;;20.30;11.90;;;;;;;12.18;100.00;100693.72;7393614;19;20422;-56
2021/10/15 00:38:55;;;;;;;23.97;12.50;;;;;;;12.15;100.00;100691.03;7401041;19;20657;-54
2021/10/15 00:41:24;;;;;;;21.23;11.93;;;;;;;12.17;100.00;100680.75;7393441;19;20761;-55
2021/10/15 00:44:05;;;;;;;19.50;11.43;;;;;;;12.22;100.00;100679.19;7399595;19;20423;-55
2021/10/15 00:46:35;;;;;;;16.57;9.37;;;;;;;12.14;100.00;100677.22;7397026;19;20486;-56
2021/10/15 00:49:05;;;;;;;16.97;8.50;;;;;;;12.14;100.00;100666.00;7400114;19;20406;-54
2021/10/15 00:51:37;;;;;;;17.23;10.60;;;;;;;12.20;100.00;100655.00;7396215;19;20447;-54
2021/10/15 00:54:07;;;;;;;17.00;10.77;;;;;;;12.25;100.00;100646.53;7399116;19;20420;-53
2021/10/15 00:56:36;;;;;;;14.80;9.93;;;;;;;12.22;100.00;100649.03;7393369;19;20415;-53
2021/10/15 00:59:06;;;;;;;13.90;10.10;;;;;;;12.32;100.00;100639.00;7400708;19;20661;-55
2021/10/15 01:01:35;;;;;;;17.77;9.30;;;;;;;12.24;100.00;100637.03;7394911;19;20458;-53
2021/10/15 01:04:06;;;;;;;16.20;9.33;;;;;;;12.22;100.00;100627.47;7399321;19;20447;-56
2021/10/15 01:06:38;;;;;;;18.50;11.60;;;;;;;12.25;100.00;100638.78;7392736;19;20435;-55
2021/10/15 01:09:07;;;;;;;17.17;10.30;;;;;;;12.27;100.00;100629.34;7399932;19;20849;-55
2021/10/15 01:11:37;;;;;;;21.07;10.97;;;;;;;12.31;100.00;100627.75;7366938;19;20469;-55
2021/10/15 01:14:07;;;;;;;20.13;10.80;;;;;;;12.28;100.00;100631.16;7400141;19;20491;-55
2021/10/15 01:16:36;;;;;;;17.50;11.40;;;;;;;12.29;100.00;100632.91;7393941;19;20432;-54
2021/10/15 01:19:06;;;;;;;16.60;9.90;;;;;;;12.24;100.00;100624.09;7400550;19;20471;-55
2021/10/15 01:21:38;;;;;;;14.90;9.40;;;;;;;12.24;100.00;100628.38;7394159;19;20423;-55
2021/10/15 01:24:08;;;;;;;21.73;11.80;;;;;;;12.29;100.00;100619.06;7400035;19;20754;-52
2021/10/15 01:26:37;;;;;;;20.17;12.53;;;;;;;12.32;100.00;100615.69;7393965;19;20494;-56
2021/10/15 01:29:07;;;;;;;16.23;9.70;;;;;;;12.24;100.00;100605.09;7402802;19;20384;-57
2021/10/15 01:31:38;;;;;;;18.70;10.70;;;;;;;12.33;100.00;100604.53;7393897;19;20876;-55
2021/10/15 01:34:07;;;;;;;19.17;12.50;;;;;;;12.36;100.00;100594.28;7399576;19;20411;-54
2021/10/15 01:36:39;;;;;;;19.70;12.87;;;;;;;12.30;100.00;100587.19;7393274;19;20415;-53
2021/10/15 01:39:09;;;;;;;20.70;11.53;;;;;;;12.21;100.00;100574.84;7399947;19;20387;-53
2021/10/15 01:41:38;;;;;;;24.53;13.83;;;;;;;12.27;100.00;100575.03;7392615;19;20425;-51
2021/10/15 01:44:07;;;;;;;22.13;12.90;;;;;;;12.26;100.00;100568.13;7399333;19;20835;-53
2021/10/15 01:46:37;;;;;;;20.97;11.03;;;;;;;12.11;100.00;100552.97;7393467;19;20422;-54
2021/10/15 01:49:07;;;;;;;22.57;12.53;;;;;;;12.14;100.00;100553.09;7399803;19;20392;-55
2021/10/15 01:51:39;;;;;;;35.07;10.60;;;;;;;12.17;100.00;100548.84;7393015;19;20502;-53
2021/10/15 01:54:08;;;;;;;25.83;15.07;;;;;;;12.14;100.00;100545.34;7399037;19;20734;-53
2021/10/15 01:56:39;;;;;;;21.53;9.57;;;;;;;12.09;100.00;100538.25;7392857;19;20429;-50
2021/10/15 01:59:09;;;;;;;21.83;9.80;;;;;;;12.11;100.00;100531.44;7399577;19;20387;-53
2021/10/15 02:01:40;;;;;;;22.50;14.97;;;;;;;12.15;100.00;100523.81;7395718;19;20479;-51
2021/10/15 02:04:09;;;;;;;25.90;13.87;;;;;;;12.08;100.00;100510.63;7400000;19;20431;-52
2021/10/15 02:06:42;;;;;;;28.47;15.90;;;;;;;12.16;100.00;100519.53;7397678;19;20419;-55
2021/10/15 02:09:11;;;;;;;27.93;16.60;;;;;;;12.08;100.00;100513.22;7399201;19;20866;-55
2021/10/15 02:11:41;;;;;;;20.40;12.40;;;;;;;11.97;100.00;100518.91;7398796;19;20690;-52
2021/10/15 02:14:10;;;;;;;37.90;15.00;;;;;;;12.00;100.00;100521.56;7398361;19;20411;-56
2021/10/15 02:16:39;;;;;;;25.70;14.83;;;;;;;11.96;100.00;100512.00;7398046;19;20495;-55
2021/10/15 02:19:09;;;;;;;24.40;13.70;;;;;;;11.94;100.00;100513.63;7404548;19;20467;-57
2021/10/15 02:21:38;;;;;;;31.33;16.13;;;;;;;12.00;100.00;100495.72;7401125;19;20462;-55
2021/10/15 02:24:10;;;;;;;24.57;11.97;;;;;;;11.99;100.00;100509.47;7403942;19;20423;-55
2021/10/15 02:26:40;;;;;;;29.90;17.07;;;;;;;12.06;100.00;100501.94;7405401;19;20415;-55
2021/10/15 02:29:09;;;;;;;23.63;14.53;;;;;;;12.04;100.00;100498.47;7406477;19;20394;-56
2021/10/15 02:31:39;;;;;;;32.00;15.40;;;;;;;12.09;100.00;100491.69;7405143;19;20411;-56
2021/10/15 02:34:08;;;;;;;24.70;14.27;;;;;;;12.08;100.00;100485.66;7404916;19;20426;-57
2021/10/15 02:36:38;;;;;;;26.73;15.77;;;;;;;12.13;100.00;100488.38;7399054;19;20692;-57
2021/10/15 02:39:07;;;;;;;22.43;14.47;;;;;;;12.11;100.00;100482.28;7405991;19;20395;-56
2021/10/15 02:41:39;;;;;;;22.87;13.30;;;;;;;12.02;100.00;100482.84;7399527;19;20418;-56
2021/10/15 02:44:10;;;;;;;21.50;11.90;;;;;;;12.05;100.00;100474.34;7403787;19;20765;-57
2021/10/15 02:46:39;;;;;;;30.00;15.80;;;;;;;12.14;100.00;100466.84;7405270;19;20407;-57
2021/10/15 02:49:09;;;;;;;25.90;16.00;;;;;;;12.11;100.00;100469.38;7405751;19;20439;-57
2021/10/15 02:51:39;;;;;;;25.30;14.57;;;;;;;12.15;100.00;100458.25;7404882;19;20444;-57
2021/10/15 02:54:08;;;;;;;22.90;12.97;;;;;;;12.04;100.00;100441.56;7404188;19;20423;-55
2021/10/15 02:56:40;;;;;;;27.37;13.23;;;;;;;12.07;100.00;100441.66;7392468;19;20791;-57
2021/10/15 02:59:10;;;;;;;21.50;12.33;;;;;;;12.07;100.00;100455.47;7405602;19;20388;-57
2021/10/15 03:01:39;;;;;;;28.83;14.50;;;;;;;12.07;100.00;100427.03;7404766;19;20411;-56
2021/10/15 03:04:09;;;;;;;25.10;16.33;;;;;;;12.19;100.00;100425.66;7407267;19;20881;-56
2021/10/15 03:06:38;;;;;;;21.10;10.60;;;;;;;12.14;100.00;100422.91;7404174;19;20415;-54
2021/10/15 03:09:08;;;;;;;24.20;11.93;;;;;;;12.12;100.00;100416.81;7405320;19;20915;-52
2021/10/15 03:11:37;;;;;;;26.13;14.40;;;;;;;12.20;100.00;100419.63;7398406;19;20433;-51
2021/10/15 03:14:10;;;;;;;26.87;15.10;;;;;;;12.20;100.00;100407.56;7403539;19;20423;-56
2021/10/15 03:16:39;;;;;;;23.60;14.40;;;;;;;12.21;100.00;100413.63;7402904;19;20486;-53
2021/10/15 03:19:08;;;;;;;24.23;14.90;;;;;;;12.20;100.00;100402.38;7404881;19;20380;-50
2021/10/15 03:21:38;;;;;;;25.53;14.50;;;;;;;12.17;100.00;100399.72;7397731;19;20415;-50
2021/10/15 03:24:08;;;;;;;24.40;14.47;;;;;;;12.23;100.00;100393.84;7402721;19;20427;-54
2021/10/15 03:26:38;;;;;;;26.73;14.93;;;;;;;12.18;100.00;100388.53;7401327;19;20464;-57
2021/10/15 03:29:10;;;;;;;25.53;15.30;;;;;;;12.27;100.00;100378.44;7404564;19;20380;-53
2021/10/15 03:31:40;;;;;;;26.50;14.37;;;;;;;12.21;100.00;100378.28;7403739;19;20478;-55
2021/10/15 03:34:09;;;;;;;20.17;11.57;;;;;;;12.20;100.00;100384.28;7403187;19;20485;-51
2021/10/15 03:36:38;;;;;;;28.77;14.37;;;;;;;12.17;100.00;100386.78;7401915;19;20418;-50
2021/10/15 03:39:10;;;;;;;23.90;12.10;;;;;;;12.11;100.00;100377.13;7407221;19;20402;-54
2021/10/15 03:41:40;;;;;;;16.73;10.13;;;;;;;12.17;100.00;100379.03;7403521;19;20410;-50
2021/10/15 03:44:12;;;;;;;25.60;13.03;;;;;;;12.15;100.00;100380.69;7402567;19;20425;-53
2021/10/15 03:46:42;;;;;;;25.20;11.93;;;;;;;12.07;100.00;100379.59;7402862;19;20411;-50
2021/10/15 03:49:11;;;;;;;25.10;11.40;;;;;;;12.15;100.00;100375.50;7404025;19;20404;-51
2021/10/15 03:51:44;;;;;;;25.80;11.80;;;;;;;12.17;100.00;100385.91;7402254;19;20426;-49
2021/10/15 03:54:13;;;;;;;29.67;16.60;;;;;;;12.27;100.00;100369.84;7402275;19;20412;-55
2021/10/15 03:56:43;;;;;;;23.47;15.20;;;;;;;12.25;100.00;100374.94;7402498;19;20403;-56
2021/10/15 03:59:15;;;;;;;32.03;15.27;;;;;;;12.19;100.00;100377.38;7403588;19;20392;-53
2021/10/15 04:01:44;;;;;;;27.73;15.80;;;;;;;12.18;100.00;100374.72;7403163;19;20495;-54
2021/10/15 04:04:14;;;;;;;28.30;15.20;;;;;;;12.19;100.00;100359.25;7395013;19;20432;-56
2021/10/15 04:06:43;;;;;;;24.70;16.87;;;;;;;12.17;100.00;100355.75;7404686;19;20469;-55
2021/10/15 04:09:13;;;;;;;24.70;14.43;;;;;;;12.14;100.00;100360.84;7403331;19;20391;-54
2021/10/15 04:11:42;;;;;;;19.83;11.50;;;;;;;12.07;100.00;100343.38;7402375;19;20672;-55
2021/10/15 04:14:14;;;;;;;16.50;10.20;;;;;;;12.10;100.00;100352.09;7401927;19;20694;-53
2021/10/15 04:16:44;;;;;;;27.50;15.63;;;;;;;12.19;100.00;100346.31;7402059;19;20925;-53
2021/10/15 04:19:13;;;;;;;27.13;16.40;;;;;;;12.25;100.00;100343.91;7398549;19;20680;-57
2021/10/15 04:21:43;;;;;;;25.87;13.10;;;;;;;12.17;100.00;100336.78;7402411;19;20447;-56
2021/10/15 04:24:13;;;;;;;25.70;14.60;;;;;;;12.17;100.00;100340.25;7401406;19;20434;-55
2021/10/15 04:26:42;;;;;;;27.30;14.40;;;;;;;12.17;100.00;100329.91;7403788;19;20885;-54
2021/10/15 04:29:14;;;;;;;20.63;11.87;;;;;;;12.10;100.00;100338.31;7402542;19;20463;-54
2021/10/15 04:31:43;;;;;;;19.60;11.47;;;;;;;12.14;100.00;100324.63;7401438;19;20655;-55
2021/10/15 04:34:13;;;;;;;25.47;12.80;;;;;;;12.13;100.00;100318.59;7401291;19;20491;-55
2021/10/15 04:36:42;;;;;;;27.73;12.90;;;;;;;12.05;100.00;100314.88;7401284;19;20420;-55
2021/10/15 04:39:12;;;;;;;17.07;9.63;;;;;;;12.06;100.00;100310.63;7402059;19;20392;-53
2021/10/15 04:41:42;;;;;;;17.73;10.47;;;;;;;12.14;100.00;100302.25;7399923;19;20415;-53
2021/10/15 04:44:11;;;;;;;28.50;15.20;;;;;;;12.14;100.00;100298.75;7400860;19;20432;-53
2021/10/15 04:46:43;;;;;;;20.87;9.73;;;;;;;12.10;100.00;100302.97;7401241;19;20920;-53
2021/10/15 04:49:13;;;;;;;22.07;10.10;;;;;;;12.14;100.00;100299.66;7402043;19;20717;-56
2021/10/15 04:51:42;;;;;;;24.07;12.93;;;;;;;12.17;100.00;100298.88;7401107;19;20486;-55
2021/10/15 04:54:12;;;;;;;22.90;14.03;;;;;;;12.20;100.00;100292.91;7404782;19;20941;-53
2021/10/15 04:56:41;;;;;;;17.67;11.57;;;;;;;12.13;100.00;100286.69;7400308;19;20475;-53
2021/10/15 04:59:11;;;;;;;18.80;10.87;;;;;;;12.12;100.00;100290.09;7401701;19;20392;-54
2021/10/15 05:01:43;;;;;;;24.13;10.83;;;;;;;12.14;100.00;100281.56;7400606;19;20427;-54
2021/10/15 05:04:13;;;;;;;25.83;13.67;;;;;;;12.12;100.00;100275.47;7400406;19;20420;-52
2021/10/15 05:06:43;;;;;;;21.70;12.80;;;;;;;11.99;100.00;100281.97;7400439;19;20428;-54
2021/10/15 05:09:26;;;;;;;26.43;14.33;;;;;;;11.94;100.00;100282.69;7402256;19;20412;-51
2021/10/15 05:11:56;;;;;;;25.60;15.00;;;;;;;11.85;100.00;100278.97;7400644;19;20475;-55
2021/10/15 05:14:26;;;;;;;21.80;11.53;;;;;;;11.78;100.00;100268.44;7393735;19;20435;-56
2021/10/15 05:16:58;;;;;;;29.20;15.80;;;;;;;11.79;100.00;100259.84;7399832;19;20426;-53
2021/10/15 05:19:28;;;;;;;25.53;15.10;;;;;;;11.84;100.00;100260.84;7394406;19;20388;-51
2021/10/15 05:22:00;;;;;;;24.93;12.67;;;;;;;11.75;100.00;100258.88;7401685;19;20396;-51
2021/10/15 05:24:31;;;;;;;27.87;18.33;;;;;;;11.82;100.00;100260.81;7377840;19;20515;-53
2021/10/15 05:27:01;;;;;;;27.37;12.60;;;;;;;11.80;100.00;100253.84;7400682;19;20873;-53
2021/10/15 05:29:30;;;;;;;31.43;11.60;;;;;;;11.74;100.00;100245.06;7394145;19;20384;-54
2021/10/15 05:32:02;;;;;;;32.80;18.27;;;;;;;11.91;100.00;100239.53;7400428;19;20406;-50
2021/10/15 05:34:32;;;;;;;21.33;12.03;;;;;;;11.77;100.00;100240.81;7395200;19;20431;-53
2021/10/15 05:37:01;;;;;;;31.60;16.37;;;;;;;11.83;100.00;100233.22;7399675;19;20406;-53
2021/10/15 05:39:31;;;;;;;27.60;16.07;;;;;;;11.79;100.00;100223.66;7396926;19;20846;-56
2021/10/15 05:42:00;;;;;;;33.83;20.50;;;;;;;11.75;100.00;100225.28;7400718;19;20460;-56
2021/10/15 05:44:30;;;;;;;30.80;20.03;;;;;;;11.80;100.00;100226.25;7392644;19;20426;-55
2021/10/15 05:47:04;;;;;;;31.23;17.37;;;;;;;11.72;100.00;100226.06;7400101;19;20460;-57
2021/10/15 05:49:34;;;;;;;27.03;14.40;;;;;;;11.69;100.00;100220.81;7393437;19;20397;-55
2021/10/15 05:52:07;;;;;;;29.80;18.10;;;;;;;11.71;100.00;100206.25;7400029;19;20447;-53
2021/10/15 05:54:45;;;;;;;30.87;17.97;;;;;;;11.70;100.00;100209.63;7389457;19;20490;-53
2021/10/15 05:58:49;;;;;;;32.60;19.20;;;;;;;11.70;100.00;100211.34;7399284;19;20387;-52
2021/10/15 06:00:20;;;;;;;33.53;19.50;;;;;;;11.60;100.00;100211.06;7392863;19;20738;-54
2021/10/15 06:02:53;;;;;;;35.30;20.00;;;;;;;11.52;100.00;100214.25;7399512;19;20406;-54
2021/10/15 06:16:53;;;;;;;26.83;15.27;;;;;;;11.22;100.00;100221.16;7397818;19;20411;-55
2021/10/15 06:19:27;;;;;;;40.83;22.47;;;;;;;11.15;100.00;100230.44;7392877;19;20394;-55
2021/10/15 06:21:57;;;;;;;38.13;21.50;;;;;;;11.13;100.00;100231.22;7398684;19;20401;-56
2021/10/15 06:24:26;;;;;;;25.50;14.90;;;;;;;11.01;100.00;100222.25;7395911;19;20483;-55
2021/10/15 06:26:55;;;;;;;41.00;23.90;;;;;;;11.13;100.00;100239.81;7398048;19;20401;-54
2021/10/15 06:29:25;;;;;;;43.80;23.40;;;;;;;11.09;100.00;100258.63;7392481;19;20388;-51
2021/10/15 06:31:54;;;;;;;53.30;29.53;;;;;;;11.15;100.00;100287.22;7398300;19;20384;-59
2021/10/15 06:34:26;;;;;;;52.30;30.70;;;;;;;11.10;100.00;100296.53;7391318;19;20471;-58
2021/10/15 06:36:56;;;;;;;45.87;23.67;;;;;;;11.12;100.00;100306.91;7397817;19;20463;-59
2021/10/15 06:39:25;;;;;;;46.33;24.27;;;;;;;10.98;100.00;100298.72;7392626;19;20408;-59
2021/10/15 06:41:55;;;;;;;36.70;20.97;;;;;;;11.04;100.00;100329.88;7398018;19;20403;-60
2021/10/15 06:44:24;;;;;;;23.60;13.80;;;;;;;10.75;100.00;100338.41;7390623;19;20896;-59
2021/10/15 06:46:54;;;;;;;13.03;9.03;;;;;;;10.63;100.00;100351.78;7397650;19;20388;-59
2021/10/15 06:49:26;;;;;;;14.03;8.10;;;;;;;10.47;100.00;100363.22;7392304;19;20394;-57
2021/10/15 06:51:56;;;;;;;11.60;7.10;;;;;;;10.48;100.00;100379.59;7397756;19;20447;-60
2021/10/15 06:54:25;;;;;;;12.30;7.60;;;;;;;10.37;100.00;100392.94;7394082;19;20506;-59
2021/10/15 06:56:55;;;;;;;9.30;5.17;;;;;;;10.27;100.00;100406.31;7397466;19;20447;-60
2021/10/15 06:59:24;;;;;;;7.83;5.40;;;;;;;10.21;100.00;100424.13;7390677;19;20455;-60
2021/10/15 07:01:53;;;;;;;5.40;3.03;;;;;;;10.20;100.00;100419.81;7397595;19;20410;-57
2021/10/15 07:04:26;;;;;;;3.80;2.67;;;;;;;9.96;100.00;100430.94;7390490;19;20705;-60
2021/10/15 07:06:56;;;;;;;4.00;1.23;;;;;;;9.84;100.00;100441.59;7406480;19;20474;-58
2021/10/15 07:09:25;;;;;;;1.60;1.23;;;;;;;9.68;100.00;100446.16;7399390;19;20459;-56
2021/10/15 07:11:55;;;;;;;3.30;1.40;;;;;;;9.63;100.00;100451.97;7404653;19;20457;-59
2021/10/15 07:14:27;;;;;;;3.67;1.60;;;;;;;9.62;100.00;100455.31;7397361;19;20426;-60
2021/10/15 07:16:56;;;;;;;5.10;2.00;;;;;;;9.53;100.00;100453.28;7404209;19;20862;-60
2021/10/15 07:19:28;;;;;;;17.23;5.67;;;;;;;9.42;100.00;100463.09;7398328;19;20395;-60
2021/10/15 07:21:58;;;;;;;5.40;1.67;;;;;;;9.42;100.00;100473.41;7405022;19;20408;-59
2021/10/15 07:24:28;;;;;;;4.50;0.90;;;;;;;9.37;100.00;100480.06;7397498;19;20715;-58
2021/10/15 07:26:57;;;;;;;44.63;11.50;;;;;;;9.46;100.00;100483.03;7402237;19;20464;-59
2021/10/15 07:29:27;;;;;;;5.70;1.57;;;;;;;9.50;100.00;100491.78;7399941;19;20415;-59
2021/10/15 07:31:56;;;;;;;9.70;2.33;;;;;;;9.52;100.00;100509.06;7406681;19;20463;-59
2021/10/15 07:34:28;;;;;;;4.57;2.73;;;;;;;9.51;100.00;100519.28;7399975;19;20580;-58
2021/10/15 07:36:58;;;;;;;12.33;4.20;;;;;;;9.45;100.00;100525.06;7404006;19;20895;-57
2021/10/15 07:39:27;;;;;;;82.27;17.00;;;;;;;9.49;100.00;100557.84;7401409;19;20387;-59
2021/10/15 07:41:57;;;;;;;7.40;1.43;;;;;;;9.36;100.00;100553.88;7403527;19;20396;-60
2021/10/15 07:44:26;;;;;;;2.23;1.00;;;;;;;9.35;100.00;100553.78;7396249;19;20483;-59
2021/10/15 07:46:56;;;;;;;4.87;1.80;;;;;;;9.22;100.00;100558.41;7400983;19;20479;-60
2021/10/15 07:49:28;;;;;;;7.63;1.50;;;;;;;9.13;100.00;100558.00;7397483;19;20392;-58
2021/10/15 07:51:57;;;;;;;7.43;2.00;;;;;;;9.17;100.00;100562.47;7403218;19;20388;-60
2021/10/15 07:54:27;;;;;;;5.73;1.53;;;;;;;9.10;100.00;100565.59;7396224;19;20720;-60
2021/10/15 07:56:56;;;;;;;4.20;2.40;;;;;;;9.16;100.00;100551.31;7404072;19;20395;-60
2021/10/15 07:59:26;;;;;;;12.33;5.20;;;;;;;9.08;100.00;100549.19;7387221;19;20868;-60
2021/10/15 08:01:55;;;;;;;5.73;1.47;;;;;;;9.10;100.00;100539.84;7403060;19;20672;-60
2021/10/15 08:04:28;;;;;;;18.27;4.33;;;;;;;9.11;100.00;100554.47;7395905;19;20444;-60
2021/10/15 08:06:57;;;;;;;4.03;1.93;;;;;;;9.07;100.00;100534.56;7400642;19;20407;-60
2021/10/15 08:09:26;;;;;;;8.50;1.90;;;;;;;9.19;100.00;100535.13;7396711;19;20404;-60
2021/10/15 08:11:56;;;;;;;21.90;12.00;;;;;;;9.34;100.00;100542.63;7402613;19;20394;-60
2021/10/15 08:14:25;;;;;;;4.37;1.10;;;;;;;9.17;100.00;100550.50;7397999;19;20491;-59
2021/10/15 08:16:55;;;;;;;12.90;5.90;;;;;;;9.29;100.00;100552.72;7404274;19;20400;-60
2021/10/15 08:19:42;;;;;;;5.47;1.40;;;;;;;9.11;100.00;100569.91;7396438;19;20416;-60
2021/10/15 08:22:12;;;;;;;7.90;3.50;;;;;;;9.04;100.00;100587.66;7402872;19;20447;-59
2021/10/15 08:24:41;;;;;;;2.23;1.00;;;;;;;9.02;100.00;100603.84;7394935;19;20873;-60
2021/10/15 08:27:11;;;;;;;10.30;5.70;;;;;;;9.01;100.00;100597.81;7400179;19;20861;-59
2021/10/15 08:29:41;;;;;;;8.03;4.63;;;;;;;9.11;100.00;100595.66;7395846;19;20415;-60
2021/10/15 08:32:11;;;;;;;8.37;2.40;;;;;;;9.38;100.00;100588.28;7405709;19;20478;-60
2021/10/15 08:34:43;;;;;;;8.00;2.33;;;;;;;9.24;100.00;100594.53;7394528;19;20436;-60
2021/10/15 08:37:12;;;;;;;5.50;1.40;;;;;;;9.25;100.00;100604.00;7401825;19;20420;-59
2021/10/15 08:39:42;;;;;;;10.77;3.73;;;;;;;9.37;100.00;100603.66;7395626;19;20419;-60
2021/10/15 08:42:11;;;;;;;5.60;2.33;;;;;;;9.36;100.00;100591.59;7400469;19;20420;-60
2021/10/15 08:44:45;;;;;;;4.97;1.80;;;;;;;9.44;100.00;100587.69;7398951;19;20489;-60
2021/10/15 08:47:18;;;;;;;10.03;3.40;;;;;;;9.39;100.00;100618.38;7402447;19;20406;-59
2021/10/15 08:50:10;;;;;;;7.27;2.40;;;;;;;9.26;100.00;100658.16;7394815;19;20418;-60
2021/10/15 08:52:40;;;;;;;5.63;1.23;;;;;;;9.17;100.00;100676.63;7401538;19;20401;-60
2021/10/15 08:55:10;;;;;;;6.90;0.90;;;;;;;9.13;100.00;100684.13;7395589;19;20495;-60
2021/10/15 08:57:42;;;;;;;4.57;1.40;;;;;;;9.12;100.00;100687.53;7401594;19;20861;-60
2021/10/15 09:00:29;;;;;;;6.37;1.50;;;;;;;9.14;100.00;100683.31;7398133;19;20450;-60
2021/10/15 09:03:16;;;;;;;7.00;1.70;;;;;;;9.03;100.00;100663.09;7401341;19;20423;-60
2021/10/15 09:05:56;;;;;;;5.63;1.73;;;;;;;9.13;100.00;100645.53;7395291;19;20434;-60
2021/10/15 09:08:27;;;;;;;8.87;3.30;;;;;;;9.44;100.00;100627.19;7401197;19;20380;-59
2021/10/15 09:10:59;;;;;;;50.17;24.87;;;;;;;9.63;100.00;100614.25;7399857;19;20936;-59
2021/10/15 09:13:29;;;;;;;12.63;3.20;;;;;;;9.58;100.00;100630.38;7400606;19;20476;-60
2021/10/15 09:16:05;;;;;;;12.37;5.03;;;;;;;9.58;100.00;100650.09;7393250;19;20463;-60
2021/10/15 09:18:35;;;;;;;5.37;1.70;;;;;;;9.78;100.00;100642.34;7400769;19;20389;-59
2021/10/15 09:21:19;;;;;;;14.33;7.10;;;;;;;9.85;100.00;100665.88;7394352;19;20427;-60
2021/10/15 09:23:52;;;;;;;10.03;2.93;;;;;;;9.69;100.00;100669.47;7399878;19;20762;-60
2021/10/15 09:26:21;;;;;;;7.70;1.97;;;;;;;9.80;100.00;100672.50;7393329;19;20719;-60
2021/10/15 09:28:51;;;;;;;5.33;1.33;;;;;;;9.79;100.00;100683.63;7402217;19;20404;-60
2021/10/15 09:31:21;;;;;;;6.73;1.50;;;;;;;9.77;100.00;100693.00;7395800;19;20515;-60
2021/10/15 09:33:57;;;;;;;5.87;1.80;;;;;;;9.69;100.00;100694.38;7399510;19;20423;-60
2021/10/15 09:36:29;;;;;;;11.70;2.97;;;;;;;9.78;100.00;100688.72;7393142;19;20414;-59
2021/10/15 09:38:58;;;;;;;9.43;2.00;;;;;;;9.75;100.00;100693.75;7403916;19;20399;-60
2021/10/15 09:41:38;;;;;;;6.20;1.50;;;;;;;9.72;100.00;100695.38;7398426;19;20439;-59
2021/10/15 09:44:32;;;;;;;9.70;2.20;;;;;;;9.71;100.00;100703.91;7402911;19;20408;-60
2021/10/15 09:47:14;;;;;;;4.40;1.60;;;;;;;9.62;100.00;100706.09;7402272;19;20439;-60
2021/10/15 09:49:52;;;;;;;8.40;2.37;;;;;;;9.61;100.00;100706.00;7396896;19;20467;-59
2021/10/15 09:52:40;;;;;;;9.50;2.07;;;;;;;9.77;100.00;100708.47;7403479;19;20431;-59
2021/10/15 09:55:28;;;;;;;6.77;1.87;;;;;;;10.02;100.00;100714.69;7395709;19;20435;-60
2021/10/15 09:57:59;;;;;;;7.37;1.70;;;;;;;10.02;100.00;100724.13;7403388;19;20396;-59
2021/10/15 10:00:31;;;;;;;14.60;2.37;;;;;;;10.04;100.00;100728.53;7396682;19;20435;-60
2021/10/15 10:03:00;;;;;;;10.07;1.70;;;;;;;9.97;100.00;100727.38;7403178;19;20491;-60
2021/10/15 10:05:30;;;;;;;7.20;1.93;;;;;;;10.10;100.00;100739.09;7394970;19;20439;-60
2021/10/15 10:08:03;;;;;;;9.73;1.97;;;;;;;10.11;100.00;100730.53;7401448;19;20391;-60
2021/10/15 10:10:35;;;;;;;8.33;2.20;;;;;;;10.36;100.00;100729.00;7396323;19;20447;-60
2021/10/15 10:13:05;;;;;;;7.13;2.30;;;;;;;10.54;100.00;100735.81;7402695;19;20399;-60
2021/10/15 10:15:37;;;;;;;12.60;2.27;;;;;;;10.55;100.00;100729.81;7395135;19;20743;-59
2021/10/15 10:18:16;;;;;;;18.40;3.17;;;;;;;10.89;100.00;100728.63;7401951;19;20412;-60
2021/10/15 10:20:49;;;;;;;9.40;2.30;;;;;;;10.97;100.00;100730.63;7396344;19;20701;-60
2021/10/15 10:23:28;;;;;;;16.43;3.07;;;;;;;10.81;100.00;100730.00;7402148;19;20428;-60
2021/10/15 10:25:59;;;;;;;14.27;3.03;;;;;;;11.02;100.00;100723.97;7395730;19;20806;-59
2021/10/15 10:28:29;;;;;;;16.10;3.70;;;;;;;11.07;100.00;100723.31;7397155;19;20447;-59
2021/10/15 10:31:03;;;;;;;13.53;2.20;;;;;;;11.11;100.00;100726.00;7393533;19;20893;-59
2021/10/15 10:33:33;;;;;;;13.50;2.83;;;;;;;11.10;100.00;100722.53;7398346;19;20423;-59
2021/10/15 10:36:13;;;;;;;13.60;2.40;;;;;;;11.00;100.00;100710.09;7394917;19;20905;-59
2021/10/15 10:38:45;;;;;;;18.23;3.43;;;;;;;11.00;100.00;100717.81;7398427;19;20394;-59
2021/10/15 10:41:16;;;;;;;23.93;5.50;;;;;;;11.19;100.00;100714.28;7398033;19;20426;-60
2021/10/15 10:44:13;;;;;;;14.43;2.87;;;;;;;11.11;100.00;100729.47;7405056;19;20724;-60
2021/10/15 10:46:44;;;;;;;49.40;9.73;;;;;;;11.31;100.00;100721.59;7404584;19;20718;-59
2021/10/15 10:49:18;;;;;;;12.40;2.40;;;;;;;11.29;100.00;100721.53;7399630;19;20392;-60
2021/10/15 10:52:08;;;;;;;15.67;2.67;;;;;;;11.08;100.00;100727.63;7405679;19;20379;-59
2021/10/15 10:54:41;;;;;;;16.90;2.83;;;;;;;11.18;100.00;100725.44;7376824;19;20487;-60
2021/10/15 10:57:20;;;;;;;13.77;2.80;;;;;;;11.23;100.00;100723.03;7403970;19;20392;-60
2021/10/15 10:59:52;;;;;;;20.77;3.30;;;;;;;11.16;100.00;100738.28;7399288;19;20506;-59
2021/10/15 11:02:23;;;;;;;17.40;2.50;;;;;;;11.29;100.00;100718.94;7405262;19;20398;-58
2021/10/15 11:04:58;;;;;;;16.70;3.50;;;;;;;11.41;100.00;100734.06;7398821;19;20435;-58
2021/10/15 11:07:31;;;;;;;17.57;3.13;;;;;;;11.41;100.00;100728.88;7404009;19;20379;-60
2021/10/15 11:10:06;;;;;;;35.83;6.70;;;;;;;11.49;100.00;100734.34;7398353;19;20692;-59
2021/10/15 11:13:00;;;;;;;28.30;5.80;;;;;;;11.56;100.00;100735.44;7405508;19;20849;-59
2021/10/15 11:15:34;;;;;;;36.60;7.30;;;;;;;11.46;100.00;100740.28;7397843;19;20415;-59
2021/10/15 11:18:04;;;;;;;13.80;2.27;;;;;;;11.52;100.00;100737.03;7404764;19;20391;-57
2021/10/15 11:20:35;;;;;;;39.67;7.93;;;;;;;11.46;100.00;100748.03;7398161;19;20419;-58
2021/10/15 11:23:06;;;;;;;108.20;23.93;;;;;;;11.68;100.00;100745.34;7404579;19;20409;-57
2021/10/15 11:25:39;;;;;;;31.23;5.43;;;;;;;11.65;100.00;100753.91;7397650;19;20429;-60
2021/10/15 11:28:12;;;;;;;13.00;1.70;;;;;;;11.53;100.00;100750.84;7402900;19;20952;-59
2021/10/15 11:30:44;;;;;;;24.30;5.33;;;;;;;11.32;100.00;100756.94;7398636;19;20419;-59
2021/10/15 11:33:14;;;;;;;18.60;2.70;;;;;;;11.35;100.00;100759.66;7405553;19;20421;-59
2021/10/15 11:35:46;;;;;;;13.20;2.23;;;;;;;11.34;100.00;100768.22;7396884;19;20434;-59
2021/10/15 11:38:19;;;;;;;8.30;1.70;;;;;;;11.24;100.00;100772.16;7407136;19;20459;-59
2021/10/15 11:40:52;;;;;;;19.07;3.00;;;;;;;11.02;100.00;100785.91;7375728;19;20444;-59